Time;durP1;ratioP1;P1;durP2;ratioP2;P2;SDS_P1;SDS_P2;PMS_P1;PMS_P2;Temp;Humidity;BMP_temperature;BMP_pressure;BME280_temperature;BME280_humidity;BME280_pressure;Samples;Min_cycle;Max_cycle;Signal;HPM_P1;HPM_P2
2023/12/27 00:01:17;0.00;0.00;0.62;0.00;0.00;0.62;3.37;2.10;;;22.00;28.00;;;;;;2256090;61;20485;-58
2023/12/27 00:04:02;0.00;0.00;0.62;0.00;0.00;0.62;3.50;2.37;;;22.00;28.00;;;;;;2256765;61;20432;-62
2023/12/27 00:06:46;0.00;0.00;0.62;0.00;0.00;0.62;5.13;2.83;;;22.00;28.00;;;;;;2256363;61;20843;-59
2023/12/27 00:09:32;0.00;0.00;0.62;0.00;0.00;0.62;4.13;2.23;;;22.00;28.00;;;;;;2256857;61;20512;-60
2023/12/27 00:12:17;0.00;0.00;0.62;0.00;0.00;0.62;3.43;2.20;;;22.00;28.00;;;;;;2256558;61;20836;-60
2023/12/27 00:15:02;0.00;0.00;0.62;0.00;0.00;0.62;3.90;2.10;;;22.00;28.00;;;;;;2255804;61;20412;-62
2023/12/27 00:17:47;0.00;0.00;0.62;0.00;0.00;0.62;3.47;2.50;;;22.00;28.00;;;;;;2256742;61;20473;-61
2023/12/27 00:20:31;0.00;0.00;0.62;0.00;0.00;0.62;4.50;2.40;;;22.00;28.00;;;;;;2256610;61;20389;-61
2023/12/27 00:23:16;0.00;0.00;0.62;0.00;0.00;0.62;3.67;2.17;;;22.00;28.00;;;;;;2256068;61;20368;-62
2023/12/27 00:26:02;0.00;0.00;0.62;0.00;0.00;0.62;3.63;2.40;;;22.00;28.00;;;;;;2256641;61;20771;-62
2023/12/27 00:28:47;0.00;0.00;0.62;0.00;0.00;0.62;3.57;1.97;;;22.00;28.00;;;;;;2256215;61;20465;-62
2023/12/27 00:31:31;0.00;0.00;0.62;0.00;0.00;0.62;3.53;2.37;;;22.00;28.00;;;;;;2256507;61;20437;-61
2023/12/27 00:34:17;0.00;0.00;0.62;0.00;0.00;0.62;3.10;1.93;;;22.00;28.00;;;;;;2256973;61;20365;-60
2023/12/27 00:37:02;0.00;0.00;0.62;0.00;0.00;0.62;3.20;2.27;;;22.00;28.00;;;;;;2256403;61;20682;-61
2023/12/27 00:39:47;0.00;0.00;0.62;0.00;0.00;0.62;3.13;1.73;;;22.00;28.00;;;;;;2256306;61;20389;-62
2023/12/27 00:42:34;0.00;0.00;0.62;0.00;0.00;0.62;3.57;2.23;;;22.00;28.00;;;;;;2255584;61;20366;-60
2023/12/27 00:45:19;0.00;0.00;0.62;0.00;0.00;0.62;3.10;2.03;;;21.90;27.90;;;;;;2255675;61;20440;-64
2023/12/27 00:48:05;0.00;0.00;0.62;0.00;0.00;0.62;3.00;1.83;;;21.90;27.90;;;;;;2256295;61;20358;-62
2023/12/27 00:50:50;0.00;0.00;0.62;0.00;0.00;0.62;2.73;1.70;;;21.90;27.90;;;;;;2256450;61;20783;-62
2023/12/27 00:53:34;0.00;0.00;0.62;0.00;0.00;0.62;3.17;2.23;;;21.90;27.90;;;;;;2256500;61;20362;-62
2023/12/27 00:56:19;0.00;0.00;0.62;0.00;0.00;0.62;3.90;1.90;;;21.90;27.90;;;;;;2256216;61;20365;-62
2023/12/27 00:59:06;0.00;0.00;0.62;0.00;0.00;0.62;4.90;2.10;;;21.90;27.90;;;;;;2255946;61;20521;-61
2023/12/27 01:01:51;0.00;0.00;0.62;0.00;0.00;0.62;3.90;2.07;;;21.90;27.90;;;;;;2253165;61;20394;-60
2023/12/27 01:04:35;0.00;0.00;0.62;0.00;0.00;0.62;2.50;1.73;;;21.90;27.90;;;;;;2256694;61;20370;-60
2023/12/27 01:07:23;0.00;0.00;0.62;0.00;0.00;0.62;3.70;1.93;;;21.90;27.90;;;;;;2256296;61;20462;-60
2023/12/27 01:10:08;0.00;0.00;0.62;0.00;0.00;0.62;3.57;2.30;;;21.90;27.80;;;;;;2256775;61;20398;-60
2023/12/27 01:12:53;0.00;0.00;0.62;0.00;0.00;0.62;3.10;2.10;;;21.90;27.90;;;;;;2256436;61;20409;-60
2023/12/27 01:15:39;0.00;0.00;0.62;0.00;0.00;0.62;3.07;2.03;;;21.90;27.80;;;;;;2256407;61;20382;-59
2023/12/27 01:18:24;0.00;0.00;0.62;0.00;0.00;0.62;5.40;2.30;;;21.90;27.80;;;;;;2256459;61;20437;-61
2023/12/27 01:21:09;0.00;0.00;0.62;0.00;0.00;0.62;3.70;2.00;;;21.90;27.80;;;;;;2255739;61;20404;-60
2023/12/27 01:23:54;0.00;0.00;0.62;0.00;0.00;0.62;2.73;1.80;;;21.90;27.80;;;;;;2256193;61;20366;-62
2023/12/27 01:26:38;0.00;0.00;0.62;0.00;0.00;0.62;2.60;1.80;;;21.90;27.80;;;;;;2256477;61;20370;-58
2023/12/27 01:29:23;0.00;0.00;0.62;0.00;0.00;0.62;3.40;1.70;;;21.90;27.80;;;;;;2255680;61;20462;-60
2023/12/27 01:32:10;0.00;0.00;0.62;0.00;0.00;0.62;2.80;1.77;;;21.90;27.80;;;;;;2253243;61;20366;-60
2023/12/27 01:34:56;0.00;0.00;0.62;0.00;0.00;0.62;3.70;1.70;;;21.90;27.80;;;;;;2249456;61;20857;-60
2023/12/27 01:37:41;0.00;0.00;0.62;0.00;0.00;0.62;2.83;1.80;;;21.90;27.70;;;;;;2256100;61;20381;-58
2023/12/27 01:40:26;0.00;0.00;0.62;0.00;0.00;0.62;2.80;1.47;;;21.90;27.70;;;;;;2256242;61;20441;-60
2023/12/27 01:43:10;0.00;0.00;0.62;0.00;0.00;0.62;5.60;1.80;;;21.90;27.70;;;;;;2255903;61;20373;-58
2023/12/27 01:45:56;0.00;0.00;0.62;0.00;0.00;0.62;2.80;1.50;;;22.00;27.80;;;;;;2256597;61;20503;-60
2023/12/27 01:48:43;0.00;0.00;0.62;0.00;0.00;0.62;3.77;1.57;;;21.90;27.70;;;;;;2256796;61;20370;-60
2023/12/27 01:51:28;0.00;0.00;0.62;0.00;0.00;0.62;2.87;1.63;;;21.90;27.70;;;;;;2255570;61;20952;-60
2023/12/27 01:54:14;0.00;0.00;0.62;0.00;0.00;0.62;2.93;1.60;;;22.00;27.70;;;;;;2256712;61;20430;-61
2023/12/27 01:56:59;0.00;0.00;0.62;0.00;0.00;0.62;3.20;1.50;;;22.00;27.70;;;;;;2256436;61;20366;-59
2023/12/27 01:59:44;0.00;0.00;0.62;0.00;0.00;0.62;3.07;1.80;;;22.00;27.70;;;;;;2255944;61;20389;-60
2023/12/27 02:02:30;0.00;0.00;0.62;0.00;0.00;0.62;3.27;1.77;;;22.00;27.70;;;;;;2255636;61;20409;-59
2023/12/27 02:05:16;0.00;0.00;0.62;0.00;0.00;0.62;2.20;1.43;;;22.00;27.70;;;;;;2256153;61;20366;-59
2023/12/27 02:08:02;0.00;0.00;0.62;0.00;0.00;0.62;3.73;2.17;;;22.00;27.70;;;;;;2256429;61;20373;-60
2023/12/27 02:10:46;0.00;0.00;0.62;0.00;0.00;0.62;2.73;1.67;;;21.90;27.60;;;;;;2256232;61;20869;-60
2023/12/27 02:13:31;0.00;0.00;0.62;0.00;0.00;0.62;2.77;1.40;;;22.00;27.60;;;;;;2255312;61;20365;-61
2023/12/27 02:16:20;0.00;0.00;0.62;0.00;0.00;0.62;3.30;1.77;;;21.90;27.50;;;;;;2256666;61;20366;-61
2023/12/27 02:19:06;0.00;0.00;0.62;0.00;0.00;0.62;3.07;1.40;;;21.90;27.50;;;;;;2255809;61;20461;-58
2023/12/27 02:21:54;0.00;0.00;0.62;0.00;0.00;0.62;3.33;2.13;;;21.90;27.50;;;;;;2255147;61;20401;-60
2023/12/27 02:24:41;0.00;0.00;0.62;0.00;0.00;0.62;1.97;1.10;;;22.00;27.60;;;;;;2256062;61;20420;-60
2023/12/27 02:27:26;0.00;0.00;0.62;0.00;0.00;0.62;2.50;1.23;;;21.90;27.50;;;;;;2256150;61;20389;-59
2023/12/27 02:30:17;0.00;0.00;0.62;0.00;0.00;0.62;3.40;1.40;;;21.90;27.50;;;;;;2255653;61;20385;-60
2023/12/27 02:33:02;0.00;0.00;0.62;0.00;0.00;0.62;2.57;1.50;;;21.90;27.50;;;;;;2252281;61;20375;-59
2023/12/27 02:35:48;0.00;0.00;0.62;0.00;0.00;0.62;2.10;1.23;;;21.90;27.50;;;;;;2253245;61;20384;-60
2023/12/27 02:38:32;0.00;0.00;0.62;0.00;0.00;0.62;3.20;1.50;;;21.90;27.50;;;;;;2250419;61;20933;-59
2023/12/27 02:41:18;0.00;0.00;0.62;0.00;0.00;0.62;4.03;1.50;;;21.90;27.50;;;;;;2256145;61;20493;-61
2023/12/27 02:44:03;0.00;0.00;0.62;0.00;0.00;0.62;2.07;1.30;;;21.90;27.50;;;;;;2255558;61;20469;-60
2023/12/27 02:46:48;0.00;0.00;0.62;0.00;0.00;0.62;1.80;1.10;;;21.90;27.50;;;;;;2256195;61;20369;-61
2023/12/27 02:49:32;0.00;0.00;0.62;0.00;0.00;0.62;3.17;1.20;;;21.90;27.50;;;;;;2255598;61;20818;-61
2023/12/27 02:52:17;0.00;0.00;0.62;0.00;0.00;0.62;2.20;1.10;;;21.90;27.50;;;;;;2515822;53;20383;-59
2023/12/27 02:55:01;0.00;0.00;0.62;0.00;0.00;0.62;2.70;1.40;;;21.90;27.50;;;;;;2254619;61;20367;-60
2023/12/27 02:57:48;0.00;0.00;0.62;0.00;0.00;0.62;1.60;1.00;;;21.90;27.50;;;;;;2251975;61;21031;-60
2023/12/27 03:00:35;0.00;0.00;0.62;0.00;0.00;0.62;3.67;1.77;;;21.90;27.50;;;;;;2254665;61;20391;-61
2023/12/27 03:03:20;0.00;0.00;0.62;0.00;0.00;0.62;2.80;1.07;;;21.90;27.50;;;;;;2251534;61;20366;-61
2023/12/27 03:06:06;0.00;0.00;0.62;0.00;0.00;0.62;2.53;1.37;;;21.90;27.50;;;;;;2252288;61;20827;-62
2023/12/27 03:08:53;0.00;0.00;0.62;0.00;0.00;0.62;3.23;1.30;;;21.90;27.50;;;;;;2252842;61;20933;-59
2023/12/27 03:11:38;0.00;0.00;0.62;0.00;0.00;0.62;3.13;1.20;;;21.90;27.50;;;;;;2251981;61;20487;-61
2023/12/27 03:14:25;0.00;0.00;0.62;0.00;0.00;0.62;2.47;1.20;;;21.90;27.50;;;;;;2252931;61;20958;-62
2023/12/27 03:17:10;0.00;0.00;0.62;0.00;0.00;0.62;1.93;1.50;;;21.80;27.40;;;;;;2253069;61;20414;-62
2023/12/27 03:19:54;0.00;0.00;0.62;0.00;0.00;0.62;2.17;1.20;;;21.80;27.40;;;;;;2254810;61;20418;-60
2023/12/27 03:22:39;0.00;0.00;0.62;0.00;0.00;0.62;2.67;1.60;;;21.90;27.50;;;;;;2252676;61;20362;-61
2023/12/27 03:25:24;0.00;0.00;0.62;0.00;0.00;0.62;2.50;1.00;;;21.90;27.50;;;;;;2252848;61;20362;-61
2023/12/27 03:28:09;0.00;0.00;0.62;0.00;0.00;0.62;2.00;1.20;;;21.80;27.40;;;;;;2252499;61;20410;-60
2023/12/27 03:30:55;0.00;0.00;0.62;0.00;0.00;0.62;2.37;1.10;;;21.90;27.50;;;;;;2255243;61;20390;-61
2023/12/27 03:33:39;0.00;0.00;0.62;0.00;0.00;0.62;2.87;1.10;;;21.80;27.40;;;;;;2254629;61;20378;-56
2023/12/27 03:36:24;0.00;0.00;0.62;0.00;0.00;0.62;1.67;0.93;;;21.80;27.40;;;;;;2258933;61;20777;-61
2023/12/27 03:39:09;0.00;0.00;0.62;0.00;0.00;0.62;1.80;1.00;;;21.80;27.40;;;;;;2256894;61;20393;-60
2023/12/27 03:41:53;0.00;0.00;0.62;0.00;0.00;0.62;2.70;1.10;;;21.80;27.40;;;;;;2256035;61;20412;-62
2023/12/27 03:44:39;0.00;0.00;0.62;0.00;0.00;0.62;2.27;1.20;;;21.80;27.40;;;;;;2256592;61;20882;-58
2023/12/27 03:47:25;0.00;0.00;0.62;0.00;0.00;0.62;2.13;1.10;;;21.80;27.40;;;;;;2256891;61;20369;-63
2023/12/27 03:50:11;0.00;0.00;0.62;0.00;0.00;0.62;3.40;1.37;;;21.80;27.40;;;;;;2256270;61;20592;-60
2023/12/27 03:52:56;0.00;0.00;0.62;0.00;0.00;0.62;1.93;0.90;;;21.80;27.40;;;;;;2256493;61;20381;-59
2023/12/27 03:55:42;0.00;0.00;0.62;0.00;0.00;0.62;1.87;1.00;;;21.80;27.40;;;;;;2256680;61;20401;-58
2023/12/27 03:58:28;0.00;0.00;0.62;0.00;0.00;0.62;3.97;1.23;;;21.80;27.40;;;;;;2253447;61;20402;-61
2023/12/27 04:01:12;0.00;0.00;0.62;0.00;0.00;0.62;2.00;1.23;;;21.80;27.40;;;;;;2256343;61;20440;-61
2023/12/27 04:03:59;0.00;0.00;0.62;0.00;0.00;0.62;2.70;1.73;;;21.80;27.40;;;;;;2256463;61;21406;-61
2023/12/27 04:06:43;0.00;0.00;0.62;0.00;0.00;0.62;2.40;0.90;;;21.70;27.30;;;;;;2256846;61;21006;-61
2023/12/27 04:09:28;0.00;0.00;0.62;0.00;0.00;0.62;1.80;1.00;;;21.70;27.40;;;;;;2256164;61;20377;-62
2023/12/27 04:12:12;0.00;0.00;0.62;0.00;0.00;0.62;2.87;1.10;;;21.80;27.40;;;;;;2256047;61;20428;-60
2023/12/27 04:14:57;0.00;0.00;0.62;0.00;0.00;0.62;2.23;1.07;;;21.70;27.40;;;;;;2256783;61;20369;-59
2023/12/27 04:17:42;0.00;0.00;0.62;0.00;0.00;0.62;1.40;0.80;;;21.70;27.40;;;;;;2256675;61;20369;-61
2023/12/27 04:20:27;0.00;0.00;0.62;0.00;0.00;0.62;2.13;1.40;;;21.70;27.40;;;;;;2255861;61;20934;-59
2023/12/27 04:23:12;0.00;0.00;0.62;0.00;0.00;0.62;2.90;1.13;;;21.70;27.40;;;;;;2256446;61;20374;-60
2023/12/27 04:25:57;0.00;0.00;0.62;0.00;0.00;0.62;2.43;1.00;;;21.70;27.40;;;;;;2256087;61;20809;-61
2023/12/27 04:28:41;0.00;0.00;0.62;0.00;0.00;0.62;2.47;1.43;;;21.70;27.40;;;;;;2256435;61;20409;-61
2023/12/27 04:31:26;0.00;0.00;0.62;0.00;0.00;0.62;1.90;1.00;;;21.70;27.40;;;;;;2256652;61;20374;-61
2023/12/27 04:34:11;0.00;0.00;0.62;0.00;0.00;0.62;2.23;1.17;;;21.70;27.40;;;;;;2256712;61;20442;-59
2023/12/27 04:36:57;0.00;0.00;0.62;0.00;0.00;0.62;1.90;1.10;;;21.70;27.40;;;;;;2256508;61;20427;-60
2023/12/27 04:39:42;0.00;0.00;0.62;0.00;0.00;0.62;2.30;1.20;;;21.70;27.40;;;;;;2256272;61;20393;-58
2023/12/27 04:42:27;0.00;0.00;0.62;0.00;0.00;0.62;1.77;1.13;;;21.70;27.40;;;;;;2256171;61;20370;-60
2023/12/27 04:45:11;0.00;0.00;0.62;0.00;0.00;0.62;2.53;1.20;;;21.60;27.30;;;;;;2256792;61;20778;-61
2023/12/27 04:47:56;0.00;0.00;0.62;0.00;0.00;0.62;1.80;1.17;;;21.70;27.40;;;;;;2255985;61;20362;-61
2023/12/27 04:50:41;0.00;0.00;0.62;0.00;0.00;0.62;2.80;1.07;;;21.70;27.40;;;;;;2256425;61;20382;-61
2023/12/27 04:53:28;0.00;0.00;0.62;0.00;0.00;0.62;2.07;1.10;;;21.70;27.40;;;;;;2256048;61;20366;-61
2023/12/27 04:56:15;0.00;0.00;0.62;0.00;0.00;0.62;1.60;0.83;;;21.70;27.40;;;;;;2256029;61;20497;-61
2023/12/27 04:59:00;0.00;0.00;0.62;0.00;0.00;0.62;2.00;1.10;;;21.70;27.40;;;;;;2256477;61;20428;-59
2023/12/27 05:01:45;0.00;0.00;0.62;0.00;0.00;0.62;1.90;0.97;;;21.60;27.30;;;;;;2255723;61;20890;-58
2023/12/27 05:04:29;0.00;0.00;0.62;0.00;0.00;0.62;1.70;1.00;;;21.60;27.30;;;;;;2255868;61;20358;-60
2023/12/27 05:07:14;0.00;0.00;0.62;0.00;0.00;0.62;4.33;1.30;;;21.60;27.30;;;;;;2256331;61;20429;-60
2023/12/27 05:10:00;0.00;0.00;0.62;0.00;0.00;0.62;3.67;1.40;;;21.60;27.30;;;;;;2256254;61;20429;-59
2023/12/27 05:12:45;0.00;0.00;0.62;0.00;0.00;0.62;2.87;1.00;;;21.60;27.30;;;;;;2256213;61;20385;-57
2023/12/27 05:15:29;0.00;0.00;0.62;0.00;0.00;0.62;2.60;1.03;;;21.60;27.30;;;;;;2256344;61;20366;-61
2023/12/27 05:18:14;0.00;0.00;0.62;0.00;0.00;0.62;1.67;0.87;;;21.60;27.30;;;;;;2256161;61;20433;-60
2023/12/27 05:21:00;0.00;0.00;0.62;0.00;0.00;0.62;2.77;1.20;;;21.60;27.30;;;;;;2256354;61;20390;-59
2023/12/27 05:23:45;0.00;0.00;0.62;0.00;0.00;0.62;3.10;1.00;;;21.60;27.30;;;;;;2256324;61;20362;-62
2023/12/27 05:26:31;0.00;0.00;0.62;0.00;0.00;0.62;3.57;1.50;;;21.60;27.30;;;;;;2256168;61;20365;-59
2023/12/27 05:29:16;0.00;0.00;0.62;0.00;0.00;0.62;2.20;1.20;;;21.60;27.30;;;;;;2256516;61;20525;-61
2023/12/27 05:32:00;0.00;0.00;0.62;0.00;0.00;0.62;2.03;0.90;;;21.60;27.30;;;;;;2255748;61;20438;-58
2023/12/27 05:34:45;0.00;0.00;0.62;0.00;0.00;0.62;2.23;1.47;;;21.60;27.30;;;;;;2256856;61;20362;-60
2023/12/27 05:37:29;0.00;0.00;0.62;0.00;0.00;0.62;2.80;1.03;;;21.60;27.30;;;;;;2256755;61;20397;-65
2023/12/27 05:40:14;0.00;0.00;0.62;0.00;0.00;0.62;1.90;0.90;;;21.60;27.30;;;;;;2256249;61;20381;-64
2023/12/27 05:43:01;0.00;0.00;0.62;0.00;0.00;0.62;1.60;1.00;;;21.60;27.30;;;;;;2256219;61;20362;-60
2023/12/27 05:45:45;0.00;0.00;0.62;0.00;0.00;0.62;2.10;1.10;;;21.60;27.30;;;;;;2256731;61;20373;-62
2023/12/27 05:48:31;0.00;0.00;0.62;0.00;0.00;0.62;2.30;1.10;;;21.50;27.20;;;;;;2256213;61;20357;-61
2023/12/27 05:51:15;0.00;0.00;0.62;0.00;0.00;0.62;2.07;0.90;;;21.60;27.30;;;;;;2256547;61;20417;-61
2023/12/27 05:54:00;0.00;0.00;0.62;0.00;0.00;0.62;1.60;0.90;;;21.60;27.30;;;;;;2256579;61;20365;-61
2023/12/27 05:56:45;0.00;0.00;0.62;0.00;0.00;0.62;2.17;1.03;;;21.60;27.30;;;;;;2256613;61;20413;-67
2023/12/27 05:59:31;0.00;0.00;0.62;0.00;0.00;0.62;2.17;0.80;;;21.60;27.30;;;;;;2256397;61;20477;-60
2023/12/27 06:02:16;0.00;0.00;0.62;0.00;0.00;0.62;1.90;0.90;;;21.50;27.20;;;;;;2255858;61;20401;-60
2023/12/27 06:05:00;0.00;0.00;0.62;0.00;0.00;0.62;3.30;1.17;;;21.60;27.30;;;;;;2256338;61;20470;-59
2023/12/27 06:07:45;0.00;0.00;0.62;0.00;0.00;0.62;2.33;1.13;;;21.60;27.30;;;;;;2256513;61;20485;-60
2023/12/27 06:10:30;0.00;0.00;0.62;0.00;0.00;0.62;2.47;1.03;;;21.60;27.30;;;;;;2255996;61;20429;-61
2023/12/27 06:13:15;0.00;0.00;0.62;0.00;0.00;0.62;2.17;1.10;;;21.60;27.30;;;;;;2256152;61;20883;-60
2023/12/27 06:16:02;0.00;0.00;0.62;0.00;0.00;0.62;2.27;0.90;;;21.50;27.20;;;;;;2256652;61;20385;-60
2023/12/27 06:18:47;0.00;0.00;0.62;0.00;0.00;0.62;2.13;1.03;;;21.50;27.20;;;;;;2256421;61;20390;-61
2023/12/27 06:21:31;0.00;0.00;0.62;0.00;0.00;0.62;2.40;1.10;;;21.50;27.20;;;;;;2256152;61;20929;-61
2023/12/27 06:24:16;0.00;0.00;0.62;0.00;0.00;0.62;1.93;0.97;;;21.50;27.20;;;;;;2256033;61;20369;-60
2023/12/27 06:27:01;0.00;0.00;0.62;0.00;0.00;0.62;1.50;0.90;;;21.50;27.80;;;;;;2256463;61;20361;-61
2023/12/27 06:29:45;0.00;0.00;0.62;0.00;0.00;0.62;1.90;1.00;;;21.50;27.20;;;;;;2256281;61;20566;-61
2023/12/27 06:32:31;0.00;0.00;0.62;0.00;0.00;0.62;1.70;0.97;;;21.50;27.20;;;;;;2255752;61;20369;-61
2023/12/27 06:35:15;0.00;0.00;0.62;0.00;0.00;0.62;2.33;0.97;;;21.50;27.20;;;;;;2256397;61;20884;-61
2023/12/27 06:38:00;0.00;0.00;0.62;0.00;0.00;0.62;2.20;1.40;;;21.50;27.20;;;;;;2256656;61;20362;-61
2023/12/27 06:40:45;0.00;0.00;0.62;0.00;0.00;0.62;2.40;1.10;;;21.50;27.80;;;;;;2256228;61;20444;-60
2023/12/27 06:43:29;0.00;0.00;0.62;0.00;0.00;0.62;2.17;1.20;;;21.50;27.20;;;;;;2256396;61;20449;-61
2023/12/27 06:46:14;0.00;0.00;0.62;0.00;0.00;0.62;2.60;1.20;;;21.50;27.20;;;;;;2256860;61;20787;-61
2023/12/27 06:49:00;0.00;0.00;0.62;0.00;0.00;0.62;2.10;1.10;;;21.50;27.20;;;;;;2257007;61;20400;-61
2023/12/27 06:51:45;0.00;0.00;0.62;0.00;0.00;0.62;1.50;0.90;;;21.50;27.20;;;;;;2256782;61;20377;-61
2023/12/27 06:54:29;0.00;0.00;0.62;0.00;0.00;0.62;2.30;1.00;;;21.50;27.20;;;;;;2256501;61;20358;-59
2023/12/27 06:57:14;0.00;0.00;0.62;0.00;0.00;0.62;2.47;1.23;;;21.50;27.20;;;;;;2257163;61;20366;-59
2023/12/27 06:59:58;0.00;0.00;0.62;0.00;0.00;0.62;1.77;1.00;;;21.50;27.20;;;;;;2256788;61;20440;-62
2023/12/27 07:02:43;0.00;0.00;0.62;0.00;0.00;0.62;1.80;1.07;;;21.50;27.20;;;;;;2256397;61;20365;-61
2023/12/27 07:05:29;0.00;0.00;0.62;0.00;0.00;0.62;2.10;0.97;;;21.50;27.20;;;;;;2257238;61;20385;-60
2023/12/27 07:08:14;0.00;0.00;0.62;0.00;0.00;0.62;4.37;1.57;;;21.50;27.20;;;;;;2256997;61;20906;-61
2023/12/27 07:10:58;0.00;0.00;0.62;0.00;0.00;0.62;4.10;1.33;;;21.50;27.20;;;;;;2256958;61;20394;-61
2023/12/27 07:13:43;0.00;0.00;0.62;0.00;0.00;0.62;2.37;1.00;;;21.50;27.20;;;;;;2256879;61;20438;-60
2023/12/27 07:16:27;0.00;0.00;0.62;0.00;0.00;0.62;3.20;1.63;;;21.40;27.10;;;;;;2256117;61;20365;-61
2023/12/27 07:19:12;0.00;0.00;0.62;0.00;0.00;0.62;2.17;1.13;;;21.40;27.60;;;;;;2256873;61;20393;-61
2023/12/27 07:21:58;0.00;0.00;0.62;0.00;0.00;0.62;3.20;1.57;;;21.50;27.20;;;;;;2256599;61;20362;-63
2023/12/27 07:24:43;0.00;0.00;0.62;0.00;0.00;0.62;3.73;1.30;;;21.40;27.10;;;;;;2256282;61;20416;-62
2023/12/27 07:27:28;0.00;0.00;0.62;0.00;0.00;0.62;3.60;1.40;;;21.50;27.20;;;;;;2256992;61;20412;-59
2023/12/27 07:30:13;0.00;0.00;0.62;0.00;0.00;0.62;2.83;1.90;;;21.50;27.20;;;;;;2257104;61;20374;-62
2023/12/27 07:32:58;0.00;0.00;0.62;0.00;0.00;0.62;2.87;1.70;;;21.50;27.20;;;;;;2256460;61;20378;-61
2023/12/27 07:35:43;0.00;0.00;0.62;0.00;0.00;0.62;2.40;1.67;;;21.40;27.10;;;;;;2256847;61;20354;-61
2023/12/27 07:38:29;0.00;0.00;0.62;0.00;0.00;0.62;3.20;1.80;;;21.50;27.10;;;;;;2256774;61;20390;-61
2023/12/27 07:41:14;0.00;0.00;0.62;0.00;0.00;0.62;2.17;1.40;;;21.50;27.10;;;;;;2256854;61;20489;-62
2023/12/27 07:43:59;0.00;0.00;0.62;0.00;0.00;0.62;3.60;1.73;;;21.40;27.10;;;;;;2256732;61;20557;-62
2023/12/27 07:46:43;0.00;0.00;0.62;0.00;0.00;0.62;2.80;1.60;;;21.40;27.10;;;;;;2256589;61;20902;-59
2023/12/27 07:49:28;0.00;0.00;0.62;0.00;0.00;0.62;2.57;1.53;;;21.40;27.10;;;;;;2256814;61;20444;-59
2023/12/27 07:52:12;0.00;0.00;0.62;0.00;0.00;0.62;3.20;1.53;;;21.40;27.10;;;;;;2256733;61;20921;-61
2023/12/27 07:54:58;0.00;0.00;0.62;0.00;0.00;0.62;2.60;1.50;;;21.40;27.10;;;;;;2256519;61;20401;-61
2023/12/27 07:57:45;0.00;0.00;0.62;0.00;0.00;0.62;2.20;1.37;;;21.40;27.10;;;;;;2256814;61;20432;-61
2023/12/27 08:00:30;0.00;0.00;0.62;0.00;0.00;0.62;4.03;1.77;;;21.40;27.10;;;;;;2256328;61;20448;-61
2023/12/27 08:03:14;0.00;0.00;0.62;0.00;0.00;0.62;3.30;1.40;;;21.40;27.10;;;;;;2256478;61;20416;-61
2023/12/27 08:05:59;0.00;0.00;0.62;0.00;0.00;0.62;4.10;1.90;;;21.40;27.10;;;;;;2256251;61;20791;-58
2023/12/27 08:08:43;0.00;0.00;0.62;0.00;0.00;0.62;2.63;1.40;;;21.40;27.10;;;;;;2256703;61;20358;-61
2023/12/27 08:11:30;0.00;0.00;0.62;0.00;0.00;0.62;2.30;1.27;;;21.40;27.10;;;;;;2256539;61;20490;-61
2023/12/27 08:14:14;0.00;0.00;0.62;0.00;0.00;0.62;3.70;1.80;;;21.40;27.10;;;;;;2256820;61;20981;-61
2023/12/27 08:16:59;0.00;0.00;0.62;0.00;0.00;0.62;2.30;1.20;;;21.40;27.10;;;;;;2256391;61;20389;-61
2023/12/27 08:19:44;0.00;0.00;0.62;0.00;0.00;0.62;3.17;1.70;;;21.40;27.10;;;;;;2256902;61;20476;-64
2023/12/27 08:22:28;0.00;0.00;0.62;0.00;0.00;0.62;3.10;1.63;;;21.40;27.10;;;;;;2255815;61;20864;-60
2023/12/27 08:25:15;0.00;0.00;0.62;0.00;0.00;0.62;2.50;1.40;;;21.40;27.10;;;;;;2256876;61;20813;-61
2023/12/27 08:28:01;0.00;0.00;0.62;0.00;0.00;0.62;2.37;1.53;;;21.40;27.10;;;;;;2256690;61;20357;-59
2023/12/27 08:30:46;0.00;0.00;0.62;0.00;0.00;0.62;3.77;1.70;;;21.40;27.40;;;;;;2255908;61;20929;-61
2023/12/27 08:33:31;0.00;0.00;0.62;0.00;0.00;0.62;3.77;1.80;;;21.40;27.10;;;;;;2256517;61;20381;-60
2023/12/27 08:36:16;0.00;0.00;0.62;0.00;0.00;0.62;2.33;1.20;;;21.40;27.10;;;;;;2257051;61;20921;-61
2023/12/27 08:39:00;0.00;0.00;0.62;0.00;0.00;0.62;3.43;1.80;;;21.40;27.10;;;;;;2256397;61;20921;-61
2023/12/27 08:41:45;0.00;0.00;0.62;0.00;0.00;0.62;3.27;1.80;;;21.40;27.10;;;;;;2256419;61;20389;-60
2023/12/27 08:44:31;0.00;0.00;0.62;0.00;0.00;0.62;2.80;2.07;;;21.30;27.00;;;;;;2255786;61;20433;-60
2023/12/27 08:47:15;0.00;0.00;0.62;0.00;0.00;0.62;2.90;1.70;;;21.40;27.10;;;;;;2256614;61;20393;-61
2023/12/27 08:50:00;0.00;0.00;0.62;0.00;0.00;0.62;2.43;1.33;;;21.40;27.10;;;;;;2256725;61;20386;-61
2023/12/27 08:52:44;0.00;0.00;0.62;0.00;0.00;0.62;4.10;2.10;;;21.30;27.00;;;;;;2256142;61;20366;-58
2023/12/27 08:55:29;0.00;0.00;0.62;0.00;0.00;0.62;2.10;1.40;;;21.40;27.10;;;;;;2256437;61;20821;-60
2023/12/27 08:58:13;0.00;0.00;0.62;0.00;0.00;0.62;3.50;1.40;;;21.40;27.10;;;;;;2256694;61;20860;-59
2023/12/27 09:01:01;0.00;0.00;0.62;0.00;0.00;0.62;3.03;1.70;;;21.30;27.10;;;;;;2256285;61;20385;-60
2023/12/27 09:03:48;0.00;0.00;0.62;0.00;0.00;0.62;2.73;1.80;;;21.30;27.10;;;;;;2256564;61;20370;-60
2023/12/27 09:06:33;0.00;0.00;0.62;0.00;0.00;0.62;2.73;1.37;;;21.40;27.10;;;;;;2256403;61;20898;-58
2023/12/27 09:09:17;0.00;0.00;0.62;0.00;0.00;0.62;5.13;1.37;;;21.30;27.00;;;;;;2256682;61;21026;-60
2023/12/27 09:12:04;0.00;0.00;0.62;0.00;0.00;0.62;2.80;1.67;;;21.30;27.00;;;;;;2256001;61;20362;-62
2023/12/27 09:14:49;0.00;0.00;0.62;0.00;0.00;0.62;2.60;1.50;;;21.30;27.00;;;;;;2256590;61;20369;-58
2023/12/27 09:17:35;0.00;0.00;0.62;0.00;0.00;0.62;3.30;1.67;;;21.30;27.00;;;;;;2256787;61;20417;-60
2023/12/27 09:20:19;0.00;0.00;0.62;0.00;0.00;0.62;2.53;1.20;;;21.30;27.00;;;;;;2256631;61;20430;-58
2023/12/27 09:23:04;0.00;0.00;0.62;0.00;0.00;0.62;2.87;1.60;;;21.30;27.10;;;;;;2256035;61;20402;-60
2023/12/27 09:25:49;0.00;0.00;0.62;0.00;0.00;0.62;2.60;1.70;;;21.30;27.00;;;;;;2253616;61;20370;-61
2023/12/27 09:28:33;0.00;0.00;0.62;0.00;0.00;0.62;2.27;1.40;;;21.30;27.10;;;;;;2256447;61;20397;-59
2023/12/27 09:31:18;0.00;0.00;0.62;0.00;0.00;0.62;2.43;1.40;;;21.30;27.00;;;;;;2256602;61;20509;-58
2023/12/27 09:34:04;0.00;0.00;0.62;0.00;0.00;0.62;2.73;1.40;;;21.30;27.00;;;;;;2256402;61;20453;-60
2023/12/27 09:36:48;0.00;0.00;0.62;0.00;0.00;0.62;2.23;1.30;;;21.30;27.00;;;;;;2255846;61;20358;-58
2023/12/27 09:39:33;0.00;0.00;0.62;0.00;0.00;0.62;2.90;1.60;;;21.30;27.00;;;;;;2256246;61;20401;-60
2023/12/27 09:42:18;0.00;0.00;0.62;0.00;0.00;0.62;1.73;1.20;;;21.30;27.00;;;;;;2256068;61;20421;-59
2023/12/27 09:45:05;0.00;0.00;0.62;0.00;0.00;0.62;1.80;1.00;;;21.30;27.10;;;;;;2256259;61;20921;-59
2023/12/27 09:47:53;0.00;0.00;0.62;0.00;0.00;0.62;2.67;1.40;;;21.30;27.00;;;;;;2256755;61;20366;-60
2023/12/27 09:50:40;0.00;0.00;0.62;0.00;0.00;0.62;1.77;1.10;;;21.30;27.00;;;;;;2256632;61;20386;-60
2023/12/27 09:53:25;0.00;0.00;0.62;0.00;0.00;0.62;2.20;1.20;;;21.30;27.00;;;;;;2256047;61;20428;-59
2023/12/27 09:56:10;0.00;0.00;0.62;0.00;0.00;0.62;2.07;1.47;;;21.30;27.10;;;;;;2256582;61;20428;-59
2023/12/27 09:59:00;0.00;0.00;0.62;0.00;0.00;0.62;2.70;1.50;;;21.30;27.00;;;;;;2256074;61;20377;-58
2023/12/27 10:01:50;0.00;0.00;0.62;0.00;0.00;0.62;2.10;1.33;;;21.30;27.00;;;;;;2256081;61;20408;-61
2023/12/27 10:04:44;0.00;0.00;0.62;0.00;0.00;0.62;3.20;1.33;;;21.30;27.00;;;;;;2256640;61;20389;-59
2023/12/27 10:07:32;0.00;0.00;0.62;0.00;0.00;0.62;3.97;2.20;;;21.30;27.10;;;;;;2255960;61;20365;-60
2023/12/27 10:10:18;0.00;0.00;0.62;0.00;0.00;0.62;2.00;1.50;;;21.30;27.10;;;;;;2256336;61;20436;-60
2023/12/27 10:13:04;0.00;0.00;0.62;0.00;0.00;0.62;2.60;1.40;;;21.30;27.10;;;;;;2256031;61;20767;-60
2023/12/27 10:15:48;0.00;0.00;0.62;0.00;0.00;0.62;3.33;1.80;;;21.30;27.00;;;;;;2256423;61;20462;-60
2023/12/27 10:18:33;0.00;0.00;0.62;0.00;0.00;0.62;2.37;1.63;;;21.30;27.10;;;;;;2256488;61;20397;-61
2023/12/27 10:21:18;0.00;0.00;0.62;0.00;0.00;0.62;2.83;1.60;;;21.30;27.10;;;;;;2255990;61;20785;-61
2023/12/27 10:24:05;0.00;0.00;0.62;0.00;0.00;0.62;2.63;1.30;;;21.30;27.10;;;;;;2256431;61;20408;-60
2023/12/27 10:26:50;0.00;0.00;0.62;0.00;0.00;0.62;1.97;1.30;;;21.30;27.10;;;;;;2256399;61;20377;-61
2023/12/27 10:29:35;0.00;0.00;0.62;0.00;0.00;0.62;1.90;1.20;;;21.30;27.10;;;;;;2255913;61;20382;-61
2023/12/27 10:32:20;0.00;0.00;0.62;0.00;0.00;0.62;2.10;1.23;;;21.30;27.10;;;;;;2256041;61;20369;-59
2023/12/27 10:35:09;0.00;0.00;0.62;0.00;0.00;0.62;2.50;1.23;;;21.30;27.10;;;;;;2256363;61;20469;-61
2023/12/27 10:38:02;0.00;0.00;0.62;0.00;0.00;0.62;2.40;1.13;;;21.30;27.10;;;;;;2256520;61;20806;-57
2023/12/27 10:40:50;0.00;0.00;0.62;0.00;0.00;0.62;2.80;1.30;;;21.30;27.10;;;;;;2256292;61;20448;-60
2023/12/27 10:43:35;0.00;0.00;0.62;0.00;0.00;0.62;2.23;1.33;;;21.30;27.10;;;;;;2255728;61;20428;-61
2023/12/27 10:46:20;0.00;0.00;0.62;0.00;0.00;0.62;2.17;1.53;;;21.30;27.10;;;;;;2256611;61;20851;-59
2023/12/27 10:49:05;0.00;0.00;0.62;0.00;0.00;0.62;2.70;1.43;;;21.30;27.10;;;;;;2256479;61;20901;-60
2023/12/27 10:51:52;0.00;0.00;0.62;0.00;0.00;0.62;1.90;1.20;;;21.30;27.10;;;;;;2255579;61;20377;-61